createdAt,value
2023-05-12T00:02:05.134Z,59
2023-05-12T00:04:35.660Z,59
2023-05-12T00:07:06.396Z,60
2023-05-12T00:09:37.032Z,59
2023-05-12T00:12:08.235Z,59
2023-05-12T00:14:38.984Z,60
2023-05-12T00:17:12.578Z,60
2023-05-12T00:19:43.639Z,59
2023-05-12T00:22:14.432Z,59
2023-05-12T00:24:45.208Z,59
2023-05-12T00:27:15.595Z,60
2023-05-12T00:29:46.195Z,59
2023-05-12T00:32:23.439Z,59
2023-05-12T00:34:54.192Z,60
2023-05-12T00:37:24.894Z,59
2023-05-12T00:39:55.528Z,59
2023-05-12T00:42:26.866Z,60
2023-05-12T00:44:58.199Z,60
2023-05-12T00:47:28.955Z,59
2023-05-12T00:49:59.423Z,60
2023-05-12T00:52:30.183Z,60
2023-05-12T00:55:01.438Z,59
2023-05-12T00:57:36.497Z,59
2023-05-12T01:00:13.609Z,60
2023-05-12T01:02:48.780Z,60
2023-05-12T01:05:27.102Z,60
2023-05-12T01:07:58.438Z,60
2023-05-12T01:10:29.945Z,60
2023-05-12T01:13:03.405Z,60
2023-05-12T01:15:34.492Z,60
2023-05-12T01:18:10.836Z,60
2023-05-12T01:20:41.379Z,60
2023-05-12T01:25:48.362Z,60
2023-05-12T01:28:19.694Z,60
2023-05-12T01:30:50.547Z,60
2023-05-12T01:33:21.706Z,59
2023-05-12T01:35:52.498Z,60
2023-05-12T01:38:23.259Z,60
2023-05-12T01:40:53.900Z,60
2023-05-12T01:43:24.199Z,60
2023-05-12T01:45:55.212Z,60
2023-05-12T01:48:26.409Z,60
2023-05-12T01:50:57.178Z,60
2023-05-12T01:53:27.904Z,60
2023-05-12T01:55:58.701Z,60
2023-05-12T01:58:29.215Z,60
2023-05-12T02:01:01.035Z,60
2023-05-12T02:03:32.124Z,60
2023-05-12T02:06:03.399Z,60
2023-05-12T02:08:34.668Z,59
2023-05-12T02:11:05.834Z,59
2023-05-12T02:13:36.787Z,60
2023-05-12T02:16:07.906Z,60
2023-05-12T02:18:40.158Z,60
2023-05-12T02:21:10.878Z,60
2023-05-12T02:23:41.775Z,60
2023-05-12T02:26:12.864Z,61
2023-05-12T02:28:43.727Z,60
2023-05-12T02:31:14.378Z,60
2023-05-12T02:33:45.336Z,60
2023-05-12T02:36:16.551Z,60
2023-05-12T02:38:47.266Z,61
2023-05-12T02:41:17.359Z,61
2023-05-12T02:43:48.994Z,61
2023-05-12T02:46:20.281Z,60
2023-05-12T02:48:50.782Z,61
2023-05-12T02:51:22.126Z,61
2023-05-12T02:53:52.867Z,61
2023-05-12T02:56:23.288Z,60
2023-05-12T02:58:54.079Z,61
2023-05-12T03:01:25.002Z,61
2023-05-12T03:03:55.764Z,61
2023-05-12T03:06:24.947Z,61
2023-05-12T03:08:55.802Z,61
2023-05-12T03:11:26.532Z,61
2023-05-12T03:13:57.611Z,61
2023-05-12T03:16:28.592Z,61
2023-05-12T03:18:59.389Z,61
2023-05-12T03:21:31.260Z,61
2023-05-12T03:24:02.555Z,61
2023-05-12T03:26:33.752Z,61
2023-05-12T03:29:04.779Z,61
2023-05-12T03:31:35.709Z,61
2023-05-12T03:34:06.834Z,61
2023-05-12T03:36:38.482Z,62
2023-05-12T03:39:09.383Z,61
2023-05-12T03:41:40.550Z,61
2023-05-12T03:44:11.005Z,61
2023-05-12T03:46:42.326Z,61
2023-05-12T03:49:12.789Z,62
2023-05-12T03:51:43.857Z,62
2023-05-12T03:54:15.783Z,61
2023-05-12T03:56:46.969Z,61
2023-05-12T03:59:17.952Z,61
2023-05-12T04:01:49.178Z,62
2023-05-12T04:04:20.017Z,62
2023-05-12T04:06:51.323Z,61
2023-05-12T04:09:22.093Z,61
2023-05-12T04:11:55.539Z,61
2023-05-12T04:14:32.080Z,62
2023-05-12T04:16:56.472Z,61
2023-05-12T04:19:27.822Z,61
2023-05-12T04:21:58.652Z,61
2023-05-12T04:24:29.839Z,61
2023-05-12T04:27:00.907Z,61
2023-05-12T04:29:31.681Z,61
2023-05-12T04:32:02.751Z,61
2023-05-12T04:34:33.736Z,61
2023-05-12T04:37:04.479Z,61
2023-05-12T04:39:35.893Z,61
2023-05-12T04:42:07.521Z,61
2023-05-12T04:44:38.464Z,61
2023-05-12T04:47:12.508Z,61
2023-05-12T04:49:43.652Z,62
2023-05-12T04:52:14.476Z,62
2023-05-12T04:54:45.764Z,62
2023-05-12T04:57:16.063Z,62
2023-05-12T04:59:47.438Z,62
2023-05-12T05:02:18.076Z,62
2023-05-12T05:04:48.762Z,63
2023-05-12T05:07:19.710Z,62
2023-05-12T05:09:51.389Z,62
2023-05-12T05:12:22.187Z,62
2023-05-12T05:14:53.154Z,63
2023-05-12T05:17:24.140Z,63
2023-05-12T05:19:58.792Z,64
2023-05-12T05:22:26.181Z,64
2023-05-12T05:24:56.769Z,63
2023-05-12T05:27:27.997Z,63
2023-05-12T05:29:59.450Z,63
2023-05-12T05:32:31.502Z,63
2023-05-12T05:35:01.734Z,63
2023-05-12T05:37:32.492Z,63
2023-05-12T05:40:03.284Z,63
2023-05-12T05:42:34.116Z,63
2023-05-12T05:45:04.603Z,63
2023-05-12T05:47:35.137Z,63
2023-05-12T05:50:05.882Z,64
2023-05-12T05:52:36.598Z,64
2023-05-12T05:55:07.842Z,65
2023-05-12T05:57:38.798Z,65
2023-05-12T06:00:09.938Z,65
2023-05-12T06:02:40.934Z,65
2023-05-12T06:05:10.834Z,65
2023-05-12T06:07:42.040Z,65
2023-05-12T06:10:19.084Z,64
2023-05-12T06:12:58.161Z,64
2023-05-12T06:15:28.529Z,65
2023-05-12T06:17:59.140Z,64
2023-05-12T06:20:36.810Z,64
2023-05-12T06:23:07.001Z,64
2023-05-12T06:25:38.607Z,64
2023-05-12T06:28:08.748Z,64
2023-05-12T06:30:39.130Z,64
2023-05-12T06:33:09.526Z,66
2023-05-12T06:35:40.262Z,66
2023-05-12T06:38:10.735Z,66
2023-05-12T06:40:41.492Z,67
2023-05-12T06:43:12.050Z,68
2023-05-12T06:45:42.219Z,68
2023-05-12T06:48:12.910Z,68
2023-05-12T06:50:43.563Z,69
2023-05-12T06:53:13.703Z,69
2023-05-12T06:55:44.421Z,69
2023-05-12T06:58:15.074Z,72
2023-05-12T07:00:45.731Z,71
2023-05-12T07:03:16.354Z,72
2023-05-12T07:05:47.053Z,71
2023-05-12T07:08:17.120Z,73
2023-05-12T07:10:47.849Z,73
2023-05-12T07:13:18.665Z,73
2023-05-12T07:15:49.387Z,75
2023-05-12T07:18:20.301Z,75
2023-05-12T07:20:51.581Z,74
2023-05-12T07:23:23.257Z,74
2023-05-12T07:25:52.224Z,73
2023-05-12T07:28:22.557Z,74
2023-05-12T07:30:53.312Z,74
2023-05-12T07:33:23.737Z,73
2023-05-12T07:35:54.907Z,74
2023-05-12T07:38:25.328Z,74
2023-05-12T07:40:55.920Z,74
2023-05-12T07:43:28.591Z,73
2023-05-12T07:45:58.022Z,73
2023-05-12T07:48:28.574Z,75
2023-05-12T07:50:58.902Z,73
2023-05-12T07:53:29.307Z,73
2023-05-12T07:55:59.501Z,74
2023-05-12T07:58:30.274Z,74
2023-05-12T08:01:00.745Z,76
2023-05-12T08:03:30.831Z,74
2023-05-12T08:06:01.365Z,74
2023-05-12T08:08:32.019Z,74
2023-05-12T08:11:02.356Z,74
2023-05-12T08:13:33.022Z,75
2023-05-12T08:16:03.830Z,74
2023-05-12T08:18:38.509Z,74
2023-05-12T08:21:08.982Z,74
2023-05-12T08:23:39.737Z,73
2023-05-12T08:26:10.160Z,74
2023-05-12T08:28:40.471Z,73
2023-05-12T08:31:15.060Z,73
2023-05-12T08:33:45.724Z,74
2023-05-12T08:36:16.163Z,73
2023-05-12T08:38:56.070Z,74
2023-05-12T08:41:26.582Z,73
2023-05-12T08:44:02.639Z,73
2023-05-12T08:46:31.909Z,72
2023-05-12T08:49:05.846Z,73
2023-05-12T08:51:40.442Z,73
2023-05-12T08:54:12.977Z,73
2023-05-12T08:59:13.682Z,73
2023-05-12T09:01:44.108Z,74
2023-05-12T09:04:14.698Z,73
2023-05-12T09:06:44.933Z,73
2023-05-12T09:09:15.044Z,74
2023-05-12T09:11:45.271Z,74
2023-05-12T09:14:15.953Z,75
2023-05-12T09:16:46.459Z,74
2023-05-12T09:19:17.152Z,73
2023-05-12T09:21:51.315Z,72
2023-05-12T09:24:21.797Z,73
2023-05-12T09:26:52.381Z,71
2023-05-12T09:29:32.082Z,71
2023-05-12T09:32:02.541Z,71
2023-05-12T09:34:32.774Z,72
2023-05-12T09:37:02.806Z,70
2023-05-12T09:39:33.178Z,69
2023-05-12T09:42:03.614Z,70
2023-05-12T09:44:34.049Z,69
2023-05-12T09:47:04.439Z,67
2023-05-12T09:49:34.457Z,67
2023-05-12T09:52:04.792Z,66
2023-05-12T09:54:35.205Z,67
2023-05-12T09:57:05.848Z,67
2023-05-12T09:59:36.811Z,66
2023-05-12T10:02:09.586Z,66
2023-05-12T10:04:39.477Z,66
2023-05-12T10:07:10.704Z,66
2023-05-12T10:09:43.504Z,65
2023-05-12T10:12:13.738Z,64
2023-05-12T10:14:47.959Z,65
2023-05-12T10:17:20.941Z,64
2023-05-12T10:25:17.762Z,65
2023-05-12T10:28:02.384Z,64
2023-05-12T10:30:31.873Z,64
2023-05-12T10:33:11.894Z,64
2023-05-12T10:35:59.712Z,63
2023-05-12T10:38:29.106Z,62
2023-05-12T10:40:59.326Z,64
2023-05-12T10:43:30.681Z,63
2023-05-12T10:46:01.909Z,63
2023-05-12T10:48:31.991Z,63
2023-05-12T10:51:09.338Z,62
2023-05-12T10:53:49.957Z,62
2023-05-12T10:56:13.607Z,63
2023-05-12T10:58:43.839Z,62
2023-05-12T11:01:13.903Z,63
2023-05-12T11:03:44.909Z,63
2023-05-12T11:06:14.230Z,63
2023-05-12T11:08:44.483Z,62
2023-05-12T11:11:15.963Z,62
2023-05-12T11:13:45.916Z,61
2023-05-12T11:16:15.861Z,61
2023-05-12T11:18:48.229Z,62
2023-05-12T11:21:18.766Z,61
2023-05-12T11:23:48.903Z,61
2023-05-12T11:26:19.405Z,61
2023-05-12T11:28:50.341Z,60
2023-05-12T11:31:21.533Z,60
2023-05-12T11:34:08.491Z,60
2023-05-12T11:36:38.457Z,60
2023-05-12T11:39:12.855Z,60
2023-05-12T11:41:42.835Z,59
2023-05-12T11:44:12.748Z,59
2023-05-12T11:46:48.154Z,58
2023-05-12T11:49:18.371Z,59
2023-05-12T11:51:48.581Z,59
2023-05-12T11:54:19.424Z,59
2023-05-12T11:56:49.608Z,58
2023-05-12T11:59:19.998Z,59
2023-05-12T12:01:50.128Z,58
2023-05-12T12:04:26.161Z,59
2023-05-12T12:06:59.848Z,58
2023-05-12T12:09:31.451Z,59
2023-05-12T12:12:04.748Z,58
2023-05-12T12:14:39.980Z,58
2023-05-12T12:17:14.775Z,60
2023-05-12T12:19:45.078Z,59
2023-05-12T12:22:15.445Z,59
2023-05-12T12:24:49.326Z,58
2023-05-12T12:27:19.762Z,59
2023-05-12T12:29:49.495Z,59
2023-05-12T12:32:20.211Z,59
2023-05-12T12:34:50.554Z,59
2023-05-12T12:37:20.937Z,60
2023-05-12T12:39:51.374Z,59
2023-05-12T12:42:23.873Z,59
2023-05-12T12:44:53.839Z,59
2023-05-12T12:47:23.716Z,60
2023-05-12T12:49:54.009Z,59
2023-05-12T12:52:24.259Z,59
2023-05-12T12:54:54.552Z,60
2023-05-12T12:57:30.044Z,60
2023-05-12T13:00:00.604Z,59
2023-05-12T13:02:30.776Z,60
2023-05-12T13:05:01.313Z,60
2023-05-12T13:07:35.172Z,59
2023-05-12T13:10:05.927Z,59
2023-05-12T13:12:37.297Z,60
2023-05-12T13:15:06.579Z,61
2023-05-12T13:17:38.434Z,61
2023-05-12T13:20:08.751Z,60
2023-05-12T13:22:39.241Z,61
2023-05-12T13:25:10.030Z,62
2023-05-12T13:27:40.818Z,61
2023-05-12T13:30:17.560Z,62
2023-05-12T13:32:48.259Z,62
2023-05-12T13:35:22.857Z,62
2023-05-12T13:37:53.926Z,62
2023-05-12T13:40:24.295Z,62
2023-05-12T13:42:54.784Z,63
2023-05-12T13:45:25.453Z,63
2023-05-12T13:47:55.338Z,63
2023-05-12T13:50:27.899Z,63
2023-05-12T13:52:58.389Z,63
2023-05-12T13:55:28.974Z,63
2023-05-12T13:57:59.536Z,63
2023-05-12T14:00:30.029Z,64
2023-05-12T14:03:01.022Z,64
2023-05-12T14:05:32.767Z,63
2023-05-12T14:08:03.153Z,64
2023-05-12T14:10:33.873Z,63
2023-05-12T14:13:05.363Z,64
2023-05-12T14:15:44.648Z,65
2023-05-12T14:18:10.124Z,66
2023-05-12T14:20:40.684Z,66
2023-05-12T14:23:11.665Z,67
2023-05-12T14:25:42.299Z,67
2023-05-12T14:28:12.874Z,68
2023-05-12T14:30:50.300Z,69
2023-05-12T14:33:20.776Z,70
2023-05-12T14:35:59.671Z,72
2023-05-12T14:38:22.198Z,72
2023-05-12T14:40:52.567Z,72
2023-05-12T14:43:24.204Z,72
2023-05-12T14:45:54.759Z,72
2023-05-12T14:48:24.683Z,72
2023-05-12T14:50:54.892Z,73
2023-05-12T14:53:24.947Z,73
2023-05-12T14:55:54.902Z,73
2023-05-12T14:58:24.809Z,72
2023-05-12T15:00:56.455Z,73
2023-05-12T15:03:26.902Z,73
2023-05-12T15:06:06.201Z,72
2023-05-12T15:08:27.225Z,71
2023-05-12T15:11:09.004Z,72
2023-05-12T15:13:38.557Z,72
2023-05-12T15:16:08.992Z,72
2023-05-12T15:18:40.323Z,71
2023-05-12T15:21:11.052Z,71
2023-05-12T15:23:41.394Z,72
2023-05-12T15:26:32.544Z,70
2023-05-12T15:28:53.924Z,71
2023-05-12T15:31:27.316Z,70
2023-05-12T15:33:57.719Z,70
2023-05-12T15:36:27.854Z,69
2023-05-12T15:38:59.048Z,69
2023-05-12T15:41:29.198Z,69
2023-05-12T15:43:59.194Z,69
2023-05-12T15:46:30.807Z,68
2023-05-12T15:49:02.363Z,69
2023-05-12T15:51:32.844Z,70
2023-05-12T15:54:03.772Z,69
2023-05-12T15:56:35.236Z,69
2023-05-12T15:59:05.833Z,69
2023-05-12T16:01:36.404Z,69
2023-05-12T16:04:07.339Z,69
2023-05-12T16:06:37.674Z,69
2023-05-12T16:09:09.118Z,69
2023-05-12T16:11:39.353Z,69
2023-05-12T16:14:09.749Z,68
2023-05-12T16:16:40.297Z,68
2023-05-12T16:19:10.851Z,68
2023-05-12T16:21:41.181Z,67
2023-05-12T16:24:11.780Z,67
2023-05-12T16:26:42.167Z,67
2023-05-12T16:29:12.569Z,66
2023-05-12T16:31:47.186Z,66
2023-05-12T16:34:21.382Z,66
2023-05-12T16:36:53.346Z,66
2023-05-12T16:39:25.302Z,66
2023-05-12T16:42:03.112Z,66
2023-05-12T16:44:34.669Z,66
2023-05-12T16:47:08.002Z,66
2023-05-12T16:49:40.015Z,66
2023-05-12T16:52:13.909Z,66
2023-05-12T16:54:46.299Z,66
2023-05-12T16:57:18.262Z,66
2023-05-12T16:59:50.324Z,66
2023-05-12T17:02:25.629Z,66
2023-05-12T17:04:58.650Z,66
2023-05-12T17:07:30.721Z,66
2023-05-12T17:10:03.391Z,66
2023-05-12T17:12:35.259Z,66
2023-05-12T17:15:08.453Z,66
2023-05-12T17:17:39.680Z,65
2023-05-12T17:20:11.449Z,65
2023-05-12T17:22:43.517Z,66
2023-05-12T17:25:15.484Z,66
2023-05-12T17:27:48.170Z,66
2023-05-12T17:30:20.216Z,66
2023-05-12T17:32:50.649Z,66
2023-05-12T17:35:22.826Z,66
2023-05-12T17:37:57.292Z,67
2023-05-12T17:40:29.405Z,66
2023-05-12T17:43:02.196Z,67
2023-05-12T17:45:32.613Z,66
2023-05-12T17:48:05.524Z,66
2023-05-12T17:50:37.971Z,66
2023-05-12T17:53:12.309Z,67
2023-05-12T17:55:45.233Z,67
2023-05-12T17:58:15.909Z,67
2023-05-12T18:00:49.301Z,67
2023-05-12T18:03:24.240Z,67
2023-05-12T18:05:54.471Z,68
2023-05-12T18:08:27.623Z,68
2023-05-12T18:10:58.732Z,67
2023-05-12T18:13:29.437Z,67
2023-05-12T18:15:59.687Z,68
2023-05-12T18:18:30.232Z,68
2023-05-12T18:21:01.497Z,68
2023-05-12T18:26:16.037Z,68
2023-05-12T18:28:52.000Z,69
2023-05-12T18:31:25.486Z,69
2023-05-12T18:33:58.720Z,69
2023-05-12T18:36:28.263Z,70
2023-05-12T18:38:59.756Z,70
2023-05-12T18:41:30.213Z,70
2023-05-12T18:44:00.575Z,70
2023-05-12T18:46:33.147Z,70
2023-05-12T18:49:04.754Z,71
2023-05-12T18:51:38.964Z,71
2023-05-12T18:54:23.619Z,70
2023-05-12T18:56:59.377Z,71
2023-05-12T18:59:30.240Z,71
2023-05-12T19:02:00.731Z,71
2023-05-12T19:04:33.133Z,72
2023-05-12T19:07:04.960Z,72
2023-05-12T19:09:41.653Z,72
2023-05-12T19:12:12.573Z,71
2023-05-12T19:14:43.422Z,71
2023-05-12T19:17:13.630Z,71
2023-05-12T19:19:44.423Z,73
2023-05-12T19:22:15.269Z,72
2023-05-12T19:24:47.495Z,73
2023-05-12T19:27:18.348Z,73
2023-05-12T19:29:50.530Z,73
2023-05-12T19:32:19.562Z,74
2023-05-12T19:34:50.128Z,74
2023-05-12T19:37:27.067Z,73
2023-05-12T19:39:58.733Z,74
2023-05-12T19:42:29.997Z,74
2023-05-12T19:45:00.709Z,73
2023-05-12T19:47:32.213Z,74
2023-05-12T19:50:08.337Z,74
2023-05-12T19:52:44.308Z,74
2023-05-12T19:55:16.453Z,73
2023-05-12T19:57:48.512Z,73
2023-05-12T20:00:23.778Z,73
2023-05-12T20:02:55.601Z,73
2023-05-12T20:05:26.222Z,73
2023-05-12T20:07:57.869Z,72
2023-05-12T20:10:29.911Z,72
2023-05-12T20:13:00.896Z,72
2023-05-12T20:15:35.368Z,71
2023-05-12T20:18:05.771Z,71
2023-05-12T20:20:37.948Z,70
2023-05-12T20:23:12.128Z,71
2023-05-12T20:25:44.831Z,71
2023-05-12T20:28:20.326Z,71
2023-05-12T20:30:50.654Z,70
2023-05-12T20:33:21.168Z,71
2023-05-12T20:35:50.680Z,70
2023-05-12T20:38:24.029Z,71
2023-05-12T20:40:58.575Z,71
2023-05-12T20:43:28.644Z,71
2023-05-12T20:45:59.149Z,70
2023-05-12T20:48:29.808Z,71
2023-05-12T20:51:00.462Z,72
2023-05-12T20:53:32.732Z,72
2023-05-12T20:56:06.904Z,72
2023-05-12T20:58:35.627Z,72
2023-05-12T21:01:06.883Z,72
2023-05-12T21:03:37.586Z,73
2023-05-12T21:06:07.838Z,73
2023-05-12T21:08:40.226Z,72
2023-05-12T21:11:11.788Z,72
2023-05-12T21:13:41.894Z,72
2023-05-12T21:16:12.479Z,72
2023-05-12T21:18:52.060Z,73
2023-05-12T21:21:24.354Z,72
2023-05-12T21:23:54.495Z,72
2023-05-12T21:26:30.585Z,71
2023-05-12T21:29:00.792Z,72
2023-05-12T21:31:31.585Z,71
2023-05-12T21:34:01.641Z,72
2023-05-12T21:36:32.909Z,72
2023-05-12T21:39:03.518Z,72
2023-05-12T21:41:34.425Z,72
2023-05-12T21:44:08.676Z,72
2023-05-12T21:46:44.387Z,72
2023-05-12T21:49:14.380Z,71
2023-05-12T21:51:47.605Z,72
2023-05-12T21:54:18.333Z,72
2023-05-12T21:56:52.435Z,72
2023-05-12T21:59:23.026Z,72
2023-05-12T22:01:54.041Z,72
2023-05-12T22:04:29.448Z,72
2023-05-12T22:07:00.259Z,72
2023-05-12T22:09:33.654Z,72
2023-05-12T22:12:03.859Z,72
2023-05-12T22:14:40.980Z,73
2023-05-12T22:17:11.168Z,73
2023-05-12T22:19:40.468Z,72
2023-05-12T22:22:11.014Z,72
2023-05-12T22:24:41.050Z,73
2023-05-12T22:27:11.169Z,72
2023-05-12T22:29:46.112Z,72
2023-05-12T22:32:16.528Z,73
2023-05-12T22:34:46.964Z,73
2023-05-12T22:37:16.829Z,72
2023-05-12T22:39:47.840Z,73
2023-05-12T22:42:18.441Z,73
2023-05-12T22:44:48.353Z,73
2023-05-12T22:47:18.839Z,73
2023-05-12T22:49:49.323Z,73
2023-05-12T22:52:19.949Z,74
2023-05-12T22:54:50.284Z,73
2023-05-12T22:57:20.904Z,74
2023-05-12T22:59:55.632Z,74
2023-05-12T23:02:34.620Z,74
2023-05-12T23:05:05.501Z,73
2023-05-12T23:07:36.184Z,74
2023-05-12T23:10:10.617Z,73
2023-05-12T23:12:41.418Z,73
2023-05-12T23:15:11.893Z,74
2023-05-12T23:17:43.950Z,73
2023-05-12T23:20:14.437Z,73
2023-05-12T23:22:45.005Z,72
2023-05-12T23:25:15.548Z,73
2023-05-12T23:27:45.715Z,72
2023-05-12T23:30:16.357Z,72
2023-05-12T23:32:46.847Z,73
2023-05-12T23:35:17.215Z,73
2023-05-12T23:37:47.650Z,73
2023-05-12T23:40:20.101Z,73
2023-05-12T23:42:50.820Z,73
2023-05-12T23:45:21.838Z,72
2023-05-12T23:47:52.448Z,72
2023-05-12T23:50:23.437Z,73
2023-05-12T23:52:53.496Z,73
2023-05-12T23:55:24.350Z,73
2023-05-12T23:57:55.618Z,73
